Time;durP1;ratioP1;P1;durP2;ratioP2;P2;SDS_P1;SDS_P2;PMS_P1;PMS_P2;Temp;Humidity;BMP_temperature;BMP_pressure;BME280_temperature;BME280_humidity;BME280_pressure;Samples;Min_cycle;Max_cycle;Signal;HPM_P1;HPM_P2
2021/04/02 00:01:59;;;;;;;16.42;9.02;;;10.00;99.90;;;;;;4771867;30;20051;-78
2021/04/02 00:04:30;;;;;;;17.90;9.65;;;10.00;99.90;;;;;;4755971;30;20527;-79
2021/04/02 00:07:06;;;;;;;17.98;9.55;;;10.00;99.90;;;;;;4756873;30;20052;-79
2021/04/02 00:09:37;;;;;;;19.42;10.02;;;10.00;99.90;;;;;;4768827;30;20101;-78
2021/04/02 00:12:09;;;;;;;15.40;9.20;;;9.90;99.90;;;;;;4772227;30;20496;-78
2021/04/02 00:14:36;;;;;;;16.58;10.00;;;9.90;99.90;;;;;;4750546;30;20056;-78
2021/04/02 00:17:07;;;;;;;21.83;9.10;;;9.90;99.90;;;;;;4722409;30;20129;-78
2021/04/02 00:19:39;;;;;;;23.55;10.23;;;9.80;99.90;;;;;;4724001;30;20063;-78
2021/04/02 00:22:10;;;;;;;15.57;8.50;;;9.90;99.90;;;;;;4739060;30;20531;-78
2021/04/02 00:24:41;;;;;;;19.40;9.90;;;9.80;99.90;;;;;;4736287;30;20413;-78
2021/04/02 00:27:12;;;;;;;15.85;9.50;;;9.80;99.90;;;;;;4735811;30;20056;-78
2021/04/02 00:29:44;;;;;;;20.02;10.70;;;9.70;99.90;;;;;;4722391;30;20513;-78
2021/04/02 00:32:15;;;;;;;18.35;9.18;;;9.60;99.90;;;;;;4736440;30;20048;-78
2021/04/02 00:34:47;;;;;;;20.40;9.98;;;9.50;99.90;;;;;;4737041;30;20048;-79
2021/04/02 00:37:19;;;;;;;20.33;9.93;;;9.50;99.90;;;;;;4736447;30;20055;-79
2021/04/02 00:39:45;;;;;;;18.25;9.38;;;9.50;99.90;;;;;;4735257;30;20143;-78
2021/04/02 00:42:17;;;;;;;14.73;8.23;;;9.40;99.90;;;;;;4721419;30;20567;-78
2021/04/02 00:44:48;;;;;;;19.40;9.05;;;9.40;99.90;;;;;;4721724;30;20056;-79
2021/04/02 00:47:15;;;;;;;15.00;9.00;;;9.30;99.90;;;;;;4751302;30;20096;-79
2021/04/02 00:49:46;;;;;;;14.38;8.93;;;9.30;99.90;;;;;;4751272;30;20048;-79
2021/04/02 00:52:17;;;;;;;15.57;9.70;;;9.20;99.90;;;;;;4721473;30;20052;-78
2021/04/02 00:54:44;;;;;;;18.70;9.63;;;9.20;99.90;;;;;;4735147;30;20052;-78
2021/04/02 00:57:15;;;;;;;17.15;9.75;;;9.20;99.90;;;;;;4735301;30;20131;-78
2021/04/02 00:59:47;;;;;;;17.42;8.80;;;9.20;99.90;;;;;;4731228;30;20048;-79
2021/04/02 01:02:13;;;;;;;15.98;9.25;;;9.10;99.90;;;;;;4752869;30;20116;-78
2021/04/02 01:04:44;;;;;;;16.27;9.82;;;9.10;99.90;;;;;;4752958;30;20051;-80
2021/04/02 01:07:16;;;;;;;17.65;9.43;;;9.10;99.90;;;;;;4752939;30;20055;-78
2021/04/02 01:09:47;;;;;;;20.75;11.43;;;9.00;99.90;;;;;;4753138;30;20062;-79
2021/04/02 01:12:14;;;;;;;17.85;9.57;;;9.00;99.90;;;;;;4752314;30;20070;-79
2021/04/02 01:14:45;;;;;;;17.52;10.52;;;8.90;99.90;;;;;;4753345;30;20470;-78
2021/04/02 01:17:21;;;;;;;20.60;9.82;;;8.90;99.90;;;;;;4752597;30;20071;-81
2021/04/02 01:19:56;;;;;;;20.67;9.55;;;8.90;99.90;;;;;;4752486;30;20516;-78
2021/04/02 01:22:26;;;;;;;18.83;10.35;;;8.90;99.90;;;;;;4752217;30;20048;-78
2021/04/02 01:25:16;;;;;;;15.77;9.85;;;8.90;99.90;;;;;;4752652;30;20051;-78
2021/04/02 01:28:02;;;;;;;;;;;8.80;99.90;;;;;;4752820;30;20052;-78
2021/04/02 01:30:36;;;;;;;17.52;9.50;;;8.80;99.90;;;;;;4767059;30;20421;-79
2021/04/02 01:33:04;;;;;;;19.23;11.80;;;8.70;99.90;;;;;;4752185;30;20063;-78
2021/04/02 01:35:37;;;;;;;20.80;10.88;;;8.70;99.90;;;;;;4730025;30;671005;-78
2021/04/02 01:38:12;;;;;;;20.80;11.88;;;8.60;99.90;;;;;;4738973;30;20056;-78
2021/04/02 01:40:43;;;;;;;20.08;11.30;;;8.60;99.90;;;;;;4738761;30;20109;-78
2021/04/02 01:43:18;;;;;;;15.98;10.57;;;8.60;99.90;;;;;;4753914;30;20047;-78
2021/04/02 01:45:51;;;;;;;24.45;11.57;;;8.50;99.90;;;;;;4753223;30;20055;-78
2021/04/02 01:48:24;;;;;;;20.05;10.98;;;8.40;99.90;;;;;;4753928;30;20040;-78
2021/04/02 01:50:58;;;;;;;26.27;11.00;;;8.40;99.90;;;;;;4752960;30;20426;-78
2021/04/02 01:53:35;;;;;;;24.05;12.55;;;8.30;99.90;;;;;;4752973;30;20052;-78
2021/04/02 01:56:08;;;;;;;25.20;13.05;;;8.30;99.90;;;;;;4753071;30;20051;-78
2021/04/02 01:58:41;;;;;;;28.38;12.93;;;8.20;99.90;;;;;;4738446;30;20402;-78
2021/04/02 02:01:15;;;;;;;25.27;12.38;;;8.20;99.90;;;;;;4752831;30;20052;-78
2021/04/02 02:03:52;;;;;;;;;;;8.20;99.90;;;;;;4739468;30;20055;-78
2021/04/02 02:06:29;;;;;;;27.20;13.27;;;8.10;99.90;;;;;;4739783;30;19933;-78
2021/04/02 02:09:16;;;;;;;26.77;14.07;;;8.00;99.90;;;;;;4740552;30;20397;-78
2021/04/02 02:11:54;;;;;;;26.83;13.05;;;8.10;99.90;;;;;;4752922;30;20079;-78
2021/04/02 02:14:31;;;;;;;24.48;13.43;;;8.00;99.90;;;;;;4739248;30;20110;-78
2021/04/02 02:17:13;;;;;;;26.50;13.02;;;8.10;99.90;;;;;;4743190;30;20141;-80
2021/04/02 02:19:45;;;;;;;22.70;14.05;;;8.00;99.90;;;;;;4742511;30;20394;-78
2021/04/02 02:22:16;;;;;;;28.52;14.52;;;7.90;99.90;;;;;;4742147;30;20058;-78
2021/04/02 02:24:52;;;;;;;28.85;15.25;;;7.90;99.90;;;;;;4758002;30;20130;-79
2021/04/02 02:27:19;;;;;;;30.73;16.20;;;7.90;99.90;;;;;;4741616;30;20490;-79
2021/04/02 02:29:52;;;;;;;27.45;16.15;;;7.80;99.90;;;;;;4742422;30;20106;-78
2021/04/02 02:32:25;;;;;;;31.20;15.82;;;7.70;99.90;;;;;;4756465;30;20140;-78
2021/04/02 02:34:53;;;;;;;38.72;15.20;;;7.60;99.90;;;;;;4756260;30;20109;-78
2021/04/02 02:37:26;;;;;;;;;;;7.60;99.90;;;;;;4756609;30;20040;-78
2021/04/02 02:39:57;;;;;;;31.00;16.27;;;7.60;99.90;;;;;;4742232;30;19957;-79
2021/04/02 02:42:30;;;;;;;31.17;16.55;;;7.60;99.90;;;;;;4741970;30;20062;-79
2021/04/02 02:45:08;;;;;;;29.02;16.73;;;7.60;99.90;;;;;;4756048;30;20521;-78
2021/04/02 02:47:40;;;;;;;32.25;17.15;;;7.60;99.90;;;;;;4741882;30;20440;-78
2021/04/02 02:50:13;;;;;;;32.33;17.35;;;7.60;99.90;;;;;;4741106;30;20075;-78
2021/04/02 02:52:47;;;;;;;31.75;17.85;;;7.60;99.90;;;;;;4756234;30;20474;-78
2021/04/02 02:55:22;;;;;;;36.05;17.52;;;7.50;99.90;;;;;;4755949;30;20074;-78
2021/04/02 02:57:55;;;;;;;36.30;18.73;;;7.40;99.90;;;;;;4741785;30;20047;-78
2021/04/02 03:00:34;;;;;;;32.17;17.65;;;7.40;99.90;;;;;;4756533;30;20103;-78
2021/04/02 03:03:14;;;;;;;33.92;16.60;;;7.30;99.90;;;;;;4756723;30;20051;-79
2021/04/02 03:05:48;;;;;;;34.22;19.67;;;7.30;99.90;;;;;;4756015;30;20079;-80
2021/04/02 03:08:33;;;;;;;34.83;17.83;;;7.20;99.90;;;;;;4754871;30;20150;-80
2021/04/02 03:11:08;;;;;;;34.80;19.00;;;7.20;99.90;;;;;;4741302;30;20047;-80
2021/04/02 03:13:41;;;;;;;37.53;17.35;;;7.20;99.90;;;;;;4755269;30;20135;-78
2021/04/02 03:16:10;;;;;;;30.10;17.92;;;7.20;99.90;;;;;;4740420;30;20051;-79
2021/04/02 03:18:48;;;;;;;30.30;17.17;;;7.30;99.90;;;;;;4752239;30;20048;-78
2021/04/02 03:21:20;;;;;;;26.80;15.73;;;7.30;99.90;;;;;;4738540;30;20062;-77
2021/04/02 03:23:57;;;;;;;33.67;17.17;;;7.30;99.90;;;;;;4739477;30;20083;-78
2021/04/02 03:26:29;;;;;;;28.27;16.67;;;7.30;99.90;;;;;;4739990;30;20056;-78
2021/04/02 03:29:03;;;;;;;35.87;16.83;;;7.30;99.90;;;;;;4735464;30;20579;-77
2021/04/02 03:31:37;;;;;;;31.02;17.42;;;7.20;99.90;;;;;;4735749;30;20566;-80
2021/04/02 03:34:11;;;;;;;35.60;18.92;;;7.20;99.90;;;;;;4736241;30;20051;-77
2021/04/02 03:36:42;;;;;;;33.40;18.48;;;7.10;99.90;;;;;;4750658;30;20070;-79
2021/04/02 03:39:21;;;;;;;37.00;19.00;;;7.10;99.90;;;;;;4749883;30;20525;-77
2021/04/02 03:41:58;;;;;;;34.72;18.92;;;7.10;99.90;;;;;;4736826;30;20055;-78
2021/04/02 03:44:35;;;;;;;36.28;17.98;;;7.00;99.90;;;;;;4722775;30;20067;-77
2021/04/02 03:47:15;;;;;;;37.40;20.60;;;7.00;99.90;;;;;;4722388;30;20055;-77
2021/04/02 03:49:54;;;;;;;35.42;20.10;;;7.00;99.90;;;;;;4735439;30;20056;-78
2021/04/02 03:52:32;;;;;;;40.53;20.33;;;7.00;99.90;;;;;;4735837;30;20052;-78
2021/04/02 03:55:04;;;;;;;37.30;21.10;;;7.00;99.90;;;;;;4736435;30;20604;-78
2021/04/02 03:57:40;;;;;;;31.27;18.77;;;7.00;99.90;;;;;;4736505;30;20064;-77
2021/04/02 04:00:21;;;;;;;36.20;18.85;;;7.00;99.90;;;;;;4735786;30;20462;-77
2021/04/02 04:03:03;;;;;;;36.05;20.42;;;7.00;99.90;;;;;;4737100;30;20509;-78
2021/04/02 04:05:37;;;;;;;36.00;19.42;;;7.00;99.90;;;;;;4736870;30;20051;-77
2021/04/02 04:08:13;;;;;;;33.00;19.83;;;7.00;99.90;;;;;;4736286;30;20067;-78
2021/04/02 04:10:49;;;;;;;39.05;19.45;;;7.00;99.90;;;;;;4735274;30;20551;-77
2021/04/02 04:13:24;;;;;;;38.08;20.13;;;7.00;99.90;;;;;;4735543;30;20056;-78
2021/04/02 04:15:54;;;;;;;41.47;20.48;;;6.90;99.90;;;;;;4720801;30;20142;-78
2021/04/02 04:18:27;;;;;;;35.80;20.00;;;6.90;99.90;;;;;;4734997;30;20513;-78
2021/04/02 04:21:02;;;;;;;36.28;19.63;;;6.90;99.90;;;;;;4735365;30;20639;-77
2021/04/02 04:23:48;;;;;;;40.00;21.20;;;6.90;99.90;;;;;;4737312;30;20053;-78
2021/04/02 04:26:21;;;;;;;32.85;19.08;;;6.80;99.90;;;;;;4735855;30;20056;-78
2021/04/02 04:28:53;;;;;;;41.83;21.38;;;6.80;99.90;;;;;;4735530;30;20079;-78
2021/04/02 04:31:26;;;;;;;41.90;22.02;;;6.80;99.90;;;;;;4735855;30;20086;-77
2021/04/02 04:34:00;;;;;;;38.40;21.42;;;6.80;99.90;;;;;;4735865;30;20072;-78
2021/04/02 04:36:33;;;;;;;34.88;19.13;;;6.80;99.90;;;;;;4750785;30;20114;-78
2021/04/02 04:39:06;;;;;;;43.40;21.63;;;6.80;99.90;;;;;;4734796;30;20505;-78
2021/04/02 04:41:38;;;;;;;38.13;21.88;;;6.80;99.90;;;;;;4734733;30;20086;-77
2021/04/02 04:44:12;;;;;;;39.17;21.38;;;6.80;99.90;;;;;;4735670;30;20112;-77
2021/04/02 04:46:43;;;;;;;33.53;20.83;;;6.80;99.90;;;;;;4735906;30;20056;-77
2021/04/02 04:49:09;;;;;;;36.38;20.48;;;6.70;99.90;;;;;;4738038;30;20095;-77
2021/04/02 04:51:42;;;;;;;37.85;21.13;;;6.70;99.90;;;;;;4735266;30;20097;-78
2021/04/02 04:54:15;;;;;;;39.85;20.92;;;6.70;99.90;;;;;;4735578;30;20106;-77
2021/04/02 04:56:48;;;;;;;38.55;19.85;;;6.70;99.90;;;;;;4735487;30;20044;-79
2021/04/02 04:59:22;;;;;;;39.17;22.20;;;6.70;99.90;;;;;;4735315;30;20095;-77
2021/04/02 05:01:55;;;;;;;41.63;22.58;;;6.70;99.90;;;;;;4735202;30;20052;-79
2021/04/02 05:04:29;;;;;;;37.75;22.15;;;6.60;99.90;;;;;;4735205;30;20060;-77
2021/04/02 05:07:02;;;;;;;38.90;21.48;;;6.60;99.90;;;;;;4735081;30;20062;-78
2021/04/02 05:09:29;;;;;;;39.25;20.75;;;6.50;99.90;;;;;;4734195;30;20156;-77
2021/04/02 05:12:01;;;;;;;39.42;20.75;;;6.50;99.90;;;;;;4735151;30;20058;-79
2021/04/02 05:14:34;;;;;;;40.33;19.73;;;6.50;99.90;;;;;;4734463;30;20071;-78
2021/04/02 05:17:01;;;;;;;40.17;23.02;;;6.50;99.90;;;;;;4734298;30;20146;-78
2021/04/02 05:19:34;;;;;;;37.33;20.77;;;6.40;99.90;;;;;;4734666;30;20460;-78
2021/04/02 05:22:08;;;;;;;35.50;19.42;;;6.40;99.90;;;;;;4750316;30;20068;-78
2021/04/02 05:24:39;;;;;;;36.40;20.08;;;6.40;99.90;;;;;;4743255;30;20619;-77
2021/04/02 05:27:06;;;;;;;33.08;19.05;;;6.40;99.90;;;;;;4737698;30;20094;-78
2021/04/02 05:29:33;;;;;;;34.28;20.45;;;6.40;99.90;;;;;;4737158;30;20058;-79
2021/04/02 05:32:04;;;;;;;31.33;18.40;;;6.40;99.90;;;;;;4751902;30;20128;-78
2021/04/02 05:34:36;;;;;;;33.60;19.55;;;6.50;99.90;;;;;;4737896;30;20047;-78
2021/04/02 05:37:07;;;;;;;34.95;20.08;;;6.50;99.90;;;;;;4751801;30;20052;-77
2021/04/02 05:39:38;;;;;;;35.33;19.25;;;6.50;99.90;;;;;;4737657;30;20420;-77
2021/04/02 05:42:12;;;;;;;32.53;19.52;;;6.50;99.90;;;;;;4737888;30;20150;-77
2021/04/02 05:44:39;;;;;;;36.05;19.77;;;6.60;99.90;;;;;;4737414;30;20063;-77
2021/04/02 05:47:11;;;;;;;38.03;20.30;;;6.60;99.90;;;;;;4749746;30;20409;-79
2021/04/02 05:49:44;;;;;;;35.42;18.83;;;6.70;99.90;;;;;;4751854;30;20051;-77
2021/04/02 05:52:16;;;;;;;38.58;19.58;;;6.70;99.90;;;;;;4752190;30;20044;-77
2021/04/02 05:54:46;;;;;;;37.22;20.73;;;6.70;99.90;;;;;;4752473;30;20152;-77
2021/04/02 05:57:17;;;;;;;31.38;19.27;;;6.80;99.90;;;;;;4752188;30;20504;-78
2021/04/02 05:59:50;;;;;;;36.70;20.23;;;6.80;99.90;;;;;;4752330;30;20697;-77
2021/04/02 06:02:22;;;;;;;29.33;17.77;;;6.90;99.90;;;;;;4752207;30;20054;-78
2021/04/02 06:04:48;;;;;;;30.48;17.80;;;7.00;99.90;;;;;;4755271;30;20580;-77
2021/04/02 06:07:14;;;;;;;28.23;15.70;;;7.00;99.90;;;;;;4737226;30;20052;-78
2021/04/02 06:09:46;;;;;;;29.95;17.60;;;7.00;99.90;;;;;;4740343;30;20143;-79
2021/04/02 06:12:17;;;;;;;33.03;17.48;;;7.10;99.90;;;;;;4724996;30;20116;-79
2021/04/02 06:14:43;;;;;;;27.95;17.17;;;7.20;99.90;;;;;;4728021;30;20048;-79
2021/04/02 06:17:10;;;;;;;25.05;16.02;;;7.30;99.90;;;;;;4725538;30;20056;-78
2021/04/02 06:19:41;;;;;;;26.75;16.13;;;7.30;99.90;;;;;;4741700;30;20052;-79
2021/04/02 06:22:08;;;;;;;30.73;16.33;;;7.40;99.90;;;;;;4741497;30;20060;-79
2021/04/02 06:24:42;;;;;;;27.55;15.48;;;7.40;99.90;;;;;;4728448;30;20150;-80
2021/04/02 06:27:14;;;;;;;30.58;16.33;;;7.50;99.90;;;;;;4739984;30;20052;-79
2021/04/02 06:30:01;;;;;;;30.73;16.83;;;7.60;99.90;;;;;;4723812;30;20056;-79
2021/04/02 06:32:36;;;;;;;27.48;16.10;;;7.60;99.90;;;;;;4723490;30;20084;-79
2021/04/02 06:35:10;;;;;;;28.08;16.88;;;7.70;99.90;;;;;;4723446;30;20052;-79
2021/04/02 06:37:36;;;;;;;;;;;7.70;99.90;;;;;;4726097;30;20056;-79
2021/04/02 06:40:19;;;;;;;28.38;16.52;;;7.70;99.90;;;;;;4724922;30;19958;-80
2021/04/02 06:42:46;;;;;;;27.95;15.43;;;7.80;99.90;;;;;;4726491;30;20059;-80
2021/04/02 06:45:13;;;;;;;33.85;17.80;;;7.80;99.90;;;;;;4739942;30;20060;-80
2021/04/02 06:47:45;;;;;;;26.85;16.20;;;7.80;99.90;;;;;;4737935;30;20056;-78
2021/04/02 06:50:27;;;;;;;30.20;15.73;;;7.90;99.90;;;;;;4738615;30;20058;-78
2021/04/02 06:52:58;;;;;;;29.40;15.75;;;7.90;99.90;;;;;;4738125;30;20048;-78
2021/04/02 06:55:30;;;;;;;25.48;14.65;;;7.90;99.90;;;;;;4737997;30;20063;-78
2021/04/02 06:58:05;;;;;;;26.90;14.48;;;8.00;99.90;;;;;;4737855;30;20575;-78
2021/04/02 07:00:39;;;;;;;21.67;13.50;;;8.10;99.90;;;;;;4740344;30;20055;-79
2021/04/02 07:03:13;;;;;;;26.10;13.65;;;8.10;99.90;;;;;;4739670;30;20058;-78
2021/04/02 07:05:40;;;;;;;20.50;13.02;;;8.20;99.90;;;;;;4755189;30;20622;-78
2021/04/02 07:08:17;;;;;;;22.33;13.90;;;8.20;99.90;;;;;;4755897;30;20119;-78
2021/04/02 07:10:50;;;;;;;21.55;13.88;;;8.30;99.90;;;;;;4740750;30;20054;-78
2021/04/02 07:13:16;;;;;;;19.52;12.77;;;8.40;99.90;;;;;;4755367;30;20462;-79
2021/04/02 07:15:50;;;;;;;23.75;12.85;;;8.50;99.90;;;;;;4741247;30;20044;-79
2021/04/02 07:18:21;;;;;;;21.70;12.90;;;8.50;99.90;;;;;;4741292;30;20496;-78
2021/04/02 07:20:54;;;;;;;20.02;12.35;;;8.50;99.90;;;;;;4754986;30;20134;-78
2021/04/02 07:23:27;;;;;;;21.20;12.40;;;8.50;99.90;;;;;;4756164;30;20040;-79
2021/04/02 07:25:59;;;;;;;20.33;13.50;;;8.60;99.90;;;;;;4755102;30;20052;-78
2021/04/02 07:28:31;;;;;;;19.88;13.20;;;8.70;99.90;;;;;;4755154;30;20105;-78
2021/04/02 07:31:04;;;;;;;23.02;13.38;;;8.70;99.90;;;;;;4740890;30;20051;-79
2021/04/02 07:33:37;;;;;;;31.30;16.38;;;8.70;99.90;;;;;;4740963;30;20437;-79
2021/04/02 07:36:12;;;;;;;24.70;13.73;;;8.70;99.90;;;;;;4755082;30;20378;-79
2021/04/02 07:38:40;;;;;;;24.10;14.05;;;8.80;99.90;;;;;;4740379;30;20813;-79
2021/04/02 07:41:14;;;;;;;27.92;16.75;;;8.80;99.90;;;;;;4741690;30;20056;-79
2021/04/02 07:43:56;;;;;;;30.35;15.50;;;8.90;99.90;;;;;;4747612;30;20085;-78
2021/04/02 07:46:30;;;;;;;25.05;15.95;;;8.90;99.90;;;;;;4756726;30;20138;-79
2021/04/02 07:49:09;;;;;;;27.08;17.05;;;9.00;99.90;;;;;;4741570;30;20061;-79
2021/04/02 07:51:46;;;;;;;25.83;16.80;;;9.10;99.90;;;;;;4741007;30;20052;-78
2021/04/02 07:54:21;;;;;;;41.00;23.73;;;9.10;99.90;;;;;;4755425;30;20056;-79
2021/04/02 07:56:55;;;;;;;32.83;17.95;;;9.20;99.90;;;;;;4741239;30;20079;-79
2021/04/02 07:59:41;;;;;;;31.98;20.17;;;9.30;99.90;;;;;;4755911;30;20039;-79
2021/04/02 08:02:29;;;;;;;30.65;19.33;;;9.40;99.90;;;;;;4754915;30;20058;-79
2021/04/02 08:05:01;;;;;;;34.55;20.65;;;9.50;99.90;;;;;;4740834;30;20087;-79
2021/04/02 08:07:40;;;;;;;37.50;22.30;;;9.60;99.90;;;;;;4740664;30;20058;-79
2021/04/02 08:10:14;;;;;;;35.63;21.73;;;9.80;99.90;;;;;;4740835;30;20086;-78
2021/04/02 08:12:45;;;;;;;39.58;23.65;;;9.90;99.90;;;;;;4740915;30;20051;-79
2021/04/02 08:15:20;;;;;;;41.53;23.27;;;10.00;99.90;;;;;;4754955;30;20447;-79
2021/04/02 08:17:55;;;;;;;39.75;24.17;;;10.10;99.90;;;;;;4740426;30;20439;-79
2021/04/02 08:20:26;;;;;;;40.38;21.83;;;10.20;99.90;;;;;;4740472;30;20575;-79
2021/04/02 08:22:58;;;;;;;35.08;21.67;;;10.20;99.90;;;;;;4755430;30;20052;-79
2021/04/02 08:25:34;;;;;;;43.47;24.27;;;10.20;99.90;;;;;;4740338;30;20058;-79
2021/04/02 08:28:09;;;;;;;34.22;22.23;;;10.20;99.90;;;;;;4754658;30;20052;-79
2021/04/02 08:30:40;;;;;;;31.38;20.70;;;10.20;99.90;;;;;;4754247;30;20063;-79
2021/04/02 08:33:12;;;;;;;35.30;20.92;;;10.20;99.90;;;;;;4740750;30;20051;-78
2021/04/02 08:35:45;;;;;;;41.72;22.77;;;10.20;99.90;;;;;;4755142;30;20130;-79
2021/04/02 08:38:16;;;;;;;32.63;19.75;;;10.20;99.90;;;;;;4744816;30;20043;-79
2021/04/02 08:40:48;;;;;;;31.77;18.90;;;10.30;99.90;;;;;;4750455;30;20059;-79
2021/04/02 08:43:22;;;;;;;30.30;19.70;;;10.40;99.90;;;;;;4741152;30;20060;-79
2021/04/02 08:45:53;;;;;;;28.30;19.50;;;10.40;99.90;;;;;;4741237;30;20067;-79
2021/04/02 08:48:24;;;;;;;30.90;17.30;;;10.40;99.90;;;;;;4741815;30;20146;-79
2021/04/02 08:50:51;;;;;;;32.22;18.23;;;10.40;99.90;;;;;;4757266;30;20123;-78
2021/04/02 08:53:22;;;;;;;26.05;18.17;;;10.30;99.90;;;;;;4759517;30;20642;-79
2021/04/02 08:55:54;;;;;;;31.58;20.02;;;10.30;99.90;;;;;;4770758;30;20197;-78
2021/04/02 08:58:25;;;;;;;32.20;20.27;;;10.30;99.90;;;;;;4756477;30;20149;-78
2021/04/02 09:00:57;;;;;;;35.22;20.80;;;10.30;99.90;;;;;;4754698;30;20048;-79
2021/04/02 09:03:31;;;;;;;33.17;22.10;;;10.20;99.90;;;;;;4753937;30;20062;-78
2021/04/02 09:06:03;;;;;;;36.95;23.48;;;10.20;99.90;;;;;;4736191;30;20131;-79
2021/04/02 09:08:35;;;;;;;35.75;21.58;;;10.20;99.90;;;;;;4752441;30;20048;-78
2021/04/02 09:11:05;;;;;;;29.88;19.80;;;10.20;99.90;;;;;;4752002;30;20135;-79
2021/04/02 09:13:41;;;;;;;31.35;19.00;;;10.20;99.90;;;;;;4732522;30;20479;-79
2021/04/02 09:16:15;;;;;;;39.03;20.45;;;10.30;99.90;;;;;;4739622;30;20048;-78
2021/04/02 09:18:52;;;;;;;35.95;22.20;;;10.30;99.90;;;;;;4739553;30;20048;-79
2021/04/02 09:21:24;;;;;;;38.97;23.27;;;10.30;99.90;;;;;;4754117;30;20055;-78
2021/04/02 09:23:56;;;;;;;42.40;23.92;;;10.40;99.90;;;;;;4761456;30;20134;-79
2021/04/02 09:26:29;;;;;;;44.20;25.90;;;10.40;99.90;;;;;;4745746;30;20130;-79
2021/04/02 09:28:59;;;;;;;39.88;24.00;;;10.40;99.90;;;;;;4774337;30;20051;-78
2021/04/02 09:31:33;;;;;;;39.10;23.80;;;10.40;99.90;;;;;;4764564;30;20044;-78
2021/04/02 09:34:07;;;;;;;45.47;25.77;;;10.30;99.90;;;;;;4740797;30;20048;-79
2021/04/02 09:36:36;;;;;;;38.30;24.63;;;10.40;99.90;;;;;;4748531;30;20058;-79
2021/04/02 09:39:11;;;;;;;42.58;24.52;;;10.40;99.90;;;;;;4746110;30;20048;-78
2021/04/02 09:41:41;;;;;;;40.17;23.52;;;10.40;99.90;;;;;;4744276;30;20113;-77
2021/04/02 09:44:14;;;;;;;38.70;24.00;;;10.50;99.90;;;;;;4755722;30;20052;-78
2021/04/02 09:54:18;;;;;;;43.78;24.00;;;10.70;99.90;;;;;;5885366;24;20114;31
2021/04/02 10:41:16;;;;;;;27.83;17.92;;;10.80;99.90;;;;;;5000544;24;20059;-80
2021/04/02 10:44:09;;;;;;;29.27;17.90;;;10.80;99.90;;;;;;4793884;29;20095;-80
2021/04/02 10:46:37;;;;;;;35.45;22.27;;;10.90;99.90;;;;;;4780023;30;20031;-81
2021/04/02 10:49:22;;;;;;;42.47;25.70;;;11.00;99.90;;;;;;4775085;30;20031;-81
2021/04/02 10:52:46;;;;;;;37.67;24.67;;;11.00;99.90;;;;;;4791688;30;20058;-81
2021/04/02 10:56:12;;;;;;;36.15;22.77;;;11.10;99.90;;;;;;4785747;30;20071;-81
2021/04/02 10:59:51;;;;;;;33.65;22.48;;;11.10;99.90;;;;;;4747360;30;20240;-81
2021/04/02 11:02:51;;;;;;;39.20;25.05;;;11.10;99.90;;;;;;4746296;30;20106;-81
2021/04/02 11:06:15;;;;;;;41.45;24.38;;;11.10;99.90;;;;;;4747344;30;20413;-81
2021/04/02 11:09:29;;;;;;;37.83;22.85;;;11.00;99.90;;;;;;4737291;30;20051;-81
2021/04/02 11:13:06;;;;;;;32.15;21.45;;;11.00;99.90;;;;;;4747116;30;20059;-81
2021/04/02 11:16:31;;;;;;;37.72;24.92;;;11.10;99.90;;;;;;4747005;30;20048;-81
2021/04/02 11:20:13;;;;;;;38.17;23.67;;;11.20;99.90;;;;;;4731280;30;20544;-80
2021/04/02 11:24:06;;;;;;;33.97;20.95;;;11.40;99.90;;;;;;4771957;30;20044;-81
2021/04/02 11:28:11;;;;;;;33.67;21.30;;;11.40;99.90;;;;;;4785798;30;20046;-81
2021/04/02 11:39:11;;;;;;;27.85;19.20;;;11.50;99.90;;;;;;4815340;29;20078;-81
2021/04/02 11:42:49;;;;;;;24.63;14.43;;;11.70;99.90;;;;;;4786137;29;20066;-81
2021/04/02 11:47:25;;;;;;;25.95;14.68;;;11.70;99.90;;;;;;4801945;30;20043;-79
2021/04/02 11:56:09;;;;;;;20.80;13.55;;;11.70;99.90;;;;;;4748784;30;20055;-81
2021/04/02 12:03:03;;;;;;;22.42;12.82;;;11.60;99.90;;;;;;4786757;30;20063;-81
2021/04/02 12:05:46;;;;;;;18.75;12.95;;;11.50;99.90;;;;;;4802424;29;20055;-81
2021/04/02 12:08:20;;;;;;;22.48;13.60;;;11.50;99.90;;;;;;4774797;30;20085;-81
2021/04/02 12:11:42;;;;;;;20.15;14.35;;;11.60;99.90;;;;;;4803105;30;20114;-81
2021/04/02 12:15:32;;;;;;;20.10;12.70;;;11.70;99.90;;;;;;4789922;30;20116;-81
2021/04/02 12:18:05;;;;;;;18.48;12.68;;;12.00;99.90;;;;;;4773366;30;20058;-78
2021/04/02 12:20:36;;;;;;;17.98;12.10;;;12.30;99.90;;;;;;4771059;30;20508;-77
2021/04/02 12:23:03;;;;;;;19.88;13.05;;;12.50;99.90;;;;;;4785706;29;20056;-77
2021/04/02 12:25:29;;;;;;;21.80;12.98;;;12.70;99.90;;;;;;4794188;29;20076;-77
2021/04/02 12:28:01;;;;;;;17.15;12.05;;;12.70;99.90;;;;;;4766145;29;20332;-77
2021/04/02 12:30:32;;;;;;;19.60;12.38;;;12.80;99.90;;;;;;4787714;29;20143;-77
2021/04/02 12:32:59;;;;;;;16.60;12.98;;;12.90;99.90;;;;;;4767689;29;20043;-77
2021/04/02 12:35:31;;;;;;;17.08;11.90;;;12.90;99.90;;;;;;4759018;30;20044;-77
2021/04/02 12:38:08;;;;;;;15.45;11.18;;;12.90;99.90;;;;;;4759018;30;20087;-77
2021/04/02 12:40:36;;;;;;;14.00;10.65;;;13.00;99.90;;;;;;4760577;30;20058;-78
2021/04/02 12:43:04;;;;;;;15.77;10.40;;;13.00;99.90;;;;;;4805839;29;20116;-78
2021/04/02 12:45:35;;;;;;;15.02;10.32;;;13.10;99.60;;;;;;4778983;29;20080;-81
2021/04/02 12:48:02;;;;;;;14.20;10.90;;;13.00;99.20;;;;;;4774834;30;20055;-81
2021/04/02 12:50:29;;;;;;;14.25;9.85;;;13.10;98.80;;;;;;4768915;30;20063;-81
2021/04/02 12:52:55;;;;;;;13.25;9.68;;;13.30;98.80;;;;;;4770447;29;20043;-81
2021/04/02 12:55:29;;;;;;;11.77;9.52;;;13.40;94.20;;;;;;4788315;29;20046;-81
2021/04/02 12:57:56;;;;;;;13.27;8.70;;;13.30;93.70;;;;;;4793133;29;20080;-80
2021/04/02 13:00:28;;;;;;;10.52;9.20;;;13.50;93.10;;;;;;4789900;29;20534;-80
2021/04/02 13:03:00;;;;;;;17.20;9.70;;;13.50;93.40;;;;;;4807154;29;20495;-80
2021/04/02 13:05:31;;;;;;;10.35;8.90;;;13.50;91.20;;;;;;4807812;29;20127;-80
2021/04/02 13:08:06;;;;;;;13.50;8.98;;;13.50;89.60;;;;;;4804373;29;20158;-80
2021/04/02 13:10:32;;;;;;;11.43;8.45;;;13.70;90.00;;;;;;4755890;30;20078;-80
2021/04/02 13:12:58;;;;;;;12.75;8.48;;;13.80;88.20;;;;;;4771056;30;20427;-80
2021/04/02 13:15:30;;;;;;;10.40;8.30;;;13.80;86.40;;;;;;4786439;29;20125;-80
2021/04/02 13:18:01;;;;;;;12.40;8.60;;;13.90;84.90;;;;;;4762048;29;20534;-80
2021/04/02 13:20:29;;;;;;;11.75;8.98;;;13.80;82.00;;;;;;4808207;29;20047;-80
2021/04/02 13:22:57;;;;;;;10.93;8.20;;;13.80;81.60;;;;;;4793107;29;20078;-79
2021/04/02 13:25:25;;;;;;;15.73;9.35;;;14.10;81.30;;;;;;4807584;29;20075;-79
2021/04/02 13:27:52;;;;;;;13.60;8.10;;;14.10;79.80;;;;;;4791258;29;20051;-78
2021/04/02 13:30:19;;;;;;;9.98;8.43;;;14.20;80.00;;;;;;4792488;29;20062;-79
2021/04/02 13:32:48;;;;;;;12.57;8.57;;;14.30;75.80;;;;;;4791890;29;20504;-80
2021/04/02 13:35:17;;;;;;;12.63;9.38;;;14.30;74.40;;;;;;4791915;29;20082;-79
2021/04/02 13:37:44;;;;;;;12.20;8.95;;;14.20;73.10;;;;;;4791226;29;20487;-80
2021/04/02 13:40:11;;;;;;;10.50;8.48;;;14.20;73.30;;;;;;4792357;29;20116;-77
2021/04/02 13:42:43;;;;;;;11.25;8.32;;;14.20;71.10;;;;;;4807895;29;20043;-78
2021/04/02 13:45:15;;;;;;;11.02;8.85;;;14.10;69.00;;;;;;4807547;29;20133;-76
2021/04/02 13:47:47;;;;;;;11.75;8.40;;;14.00;71.50;;;;;;4806061;29;20099;-78
2021/04/02 13:50:19;;;;;;;11.20;8.95;;;14.20;70.90;;;;;;4790923;29;20042;-78
2021/04/02 13:52:51;;;;;;;13.05;8.38;;;14.30;68.10;;;;;;4803167;29;20050;-77
2021/04/02 13:55:24;;;;;;;11.07;7.97;;;14.30;66.60;;;;;;4800518;29;20066;-77
2021/04/02 13:57:51;;;;;;;13.18;8.35;;;14.50;65.60;;;;;;4805075;29;20108;-77
2021/04/02 14:00:24;;;;;;;10.05;7.95;;;14.60;65.50;;;;;;4806462;29;20057;-77
2021/04/02 14:02:56;;;;;;;12.32;8.75;;;14.70;65.90;;;;;;4790783;29;20145;-78
2021/04/02 14:05:23;;;;;;;12.43;9.20;;;14.90;64.90;;;;;;4790321;29;20055;-80
2021/04/02 14:07:54;;;;;;;9.70;8.02;;;14.90;64.70;;;;;;4802372;29;20108;-76
2021/04/02 14:10:28;;;;;;;11.38;8.50;;;14.90;61.10;;;;;;4801605;29;20051;-76
2021/04/02 14:12:55;;;;;;;12.40;8.80;;;14.90;61.20;;;;;;4789046;29;20054;-77
2021/04/02 14:15:27;;;;;;;12.20;8.43;;;14.90;61.40;;;;;;4804465;29;20061;-77
2021/04/02 14:17:59;;;;;;;15.68;10.48;;;15.00;61.50;;;;;;4799809;29;20051;-77
2021/04/02 14:20:37;;;;;;;11.20;9.35;;;15.10;60.80;;;;;;4801206;29;20164;-76
2021/04/02 14:23:08;;;;;;;11.57;8.27;;;15.10;62.20;;;;;;4804439;29;20153;-76
2021/04/02 14:25:40;;;;;;;11.13;8.23;;;15.30;60.70;;;;;;4804986;29;20051;-76
2021/04/02 14:28:11;;;;;;;10.38;7.80;;;15.30;57.90;;;;;;4789164;29;20418;-76
2021/04/02 14:30:44;;;;;;;11.05;8.35;;;15.40;60.50;;;;;;4805015;29;20054;-76